Buffalo, New York
Current Conditions -  °F | °C
As of 12:54 AM on Friday 31 Oct 2014 (Local Time) from KBUF Reporting Station
Overcast Overcast  
Wind Chill:   Ceiling: 11000
Heat Index:   Visibility: 10mi
Dew Point:   Wind: 3mph
Humidity: 74%   Direction: 120°ESE
Pressure: 30.01"   Gusts: NA
Location:  42.89°N, 78.88°W
Report Text: KBUF 310454Z 12003KT 10SM FEW045 BKN110 OVC160 06/02 A3001 RMK AO2 SLP166 T00610017 400940033
Loading
Personal Weather Stations






























Interactive Weather Map
Tropical Storm Tracking
New forecast layout! Learn more

10-Day Weather Forecast

Advertisements
Track Severe Weather on mobile